createdAt,value
2022-11-17T00:02:29.347Z,1.42
2022-11-17T00:05:07.158Z,1.10
2022-11-17T00:07:42.832Z,0.65
2022-11-17T00:10:41.234Z,1.05
2022-11-17T00:13:37.887Z,1.08
2022-11-17T00:16:34.511Z,1.27
2022-11-17T00:19:28.545Z,1.02
2022-11-17T00:22:09.807Z,1.20
2022-11-17T00:24:55.819Z,1.20
2022-11-17T00:27:39.384Z,0.88
2022-11-17T00:30:43.955Z,1.13
2022-11-17T00:33:45.577Z,1.00
2022-11-17T00:36:31.745Z,1.10
2022-11-17T00:39:09.588Z,1.17
2022-11-17T00:41:51.470Z,0.80
2022-11-17T00:44:30.864Z,0.95
2022-11-17T00:47:07.057Z,1.15
2022-11-17T00:49:38.345Z,1.70
2022-11-17T00:52:17.853Z,1.40
2022-11-17T00:58:12.280Z,0.77
2022-11-17T01:00:47.166Z,0.73
2022-11-17T01:03:25.735Z,1.23
2022-11-17T01:05:55.822Z,1.75
2022-11-17T01:08:56.516Z,1.70
2022-11-17T01:11:34.025Z,1.15
2022-11-17T01:14:37.932Z,1.13
2022-11-17T01:17:33.892Z,0.88
2022-11-17T01:20:26.843Z,0.88
2022-11-17T01:23:05.020Z,1.30
2022-11-17T01:25:46.656Z,1.38
2022-11-17T01:28:20.883Z,0.68
2022-11-17T01:31:08.418Z,1.45
2022-11-17T01:33:48.076Z,1.58
2022-11-17T01:39:55.363Z,1.33
2022-11-17T01:42:58.881Z,1.38
2022-11-17T01:45:52.297Z,0.98
2022-11-17T01:49:10.641Z,0.75
2022-11-17T01:52:16.318Z,1.35
2022-11-17T01:55:06.329Z,1.27
2022-11-17T01:58:00.397Z,1.55
2022-11-17T02:00:39.424Z,1.90
2022-11-17T02:03:31.364Z,1.70
2022-11-17T02:06:31.454Z,2.00
2022-11-17T02:09:46.653Z,1.80
2022-11-17T02:13:09.678Z,2.40
2022-11-17T02:15:52.730Z,3.03
2022-11-17T02:19:23.457Z,1.98
2022-11-17T02:22:29.361Z,2.08
2022-11-17T02:25:41.408Z,2.72
2022-11-17T02:28:49.063Z,2.47
2022-11-17T02:31:28.833Z,2.90
2022-11-17T02:34:28.389Z,3.20
2022-11-17T02:37:45.062Z,2.75
2022-11-17T02:41:02.547Z,2.60
2022-11-17T02:47:16.864Z,2.92
2022-11-17T02:50:02.042Z,2.90
2022-11-17T02:53:25.874Z,2.70
2022-11-17T02:56:05.768Z,3.35
2022-11-17T02:58:46.775Z,3.35
2022-11-17T03:01:33.712Z,2.95
2022-11-17T03:04:30.270Z,3.50
2022-11-17T03:07:22.789Z,2.63
2022-11-17T03:10:03.038Z,2.47
2022-11-17T03:13:04.223Z,3.83
2022-11-17T03:16:01.042Z,3.30
2022-11-17T03:19:10.262Z,3.72
2022-11-17T03:22:21.537Z,2.78
2022-11-17T03:25:15.893Z,3.78
2022-11-17T03:28:05.732Z,3.85
2022-11-17T03:31:10.937Z,3.53
2022-11-17T04:21:55.128Z,4.65
2022-11-17T04:25:05.193Z,3.88
2022-11-17T04:28:48.672Z,5.35
2022-11-17T04:35:19.304Z,5.55
2022-11-17T04:38:40.235Z,4.63
2022-11-17T04:42:25.694Z,3.47
2022-11-17T04:45:41.823Z,3.58
2022-11-17T04:48:18.153Z,4.53
2022-11-17T04:50:56.167Z,4.10
2022-11-17T04:53:43.740Z,5.57
2022-11-17T04:56:15.935Z,3.78
2022-11-17T04:58:46.377Z,4.80
2022-11-17T05:02:02.539Z,7.22
2022-11-17T05:10:51.659Z,4.18
2022-11-17T05:13:27.708Z,5.18
2022-11-17T05:16:20.636Z,5.25
2022-11-17T05:19:04.638Z,4.97
2022-11-17T05:22:06.487Z,5.95
2022-11-17T05:24:45.734Z,4.68
2022-11-17T05:27:27.782Z,5.07
2022-11-17T05:30:31.259Z,5.28
2022-11-17T05:33:10.118Z,4.80
2022-11-17T05:36:22.600Z,4.50
2022-11-17T05:39:01.434Z,4.93
2022-11-17T05:41:34.160Z,4.15
2022-11-17T05:44:13.859Z,5.40
2022-11-17T05:47:07.423Z,6.07
2022-11-17T05:49:52.401Z,4.32
2022-11-17T05:52:26.422Z,5.63
2022-11-17T05:55:09.217Z,4.88
2022-11-17T05:57:40.279Z,4.57
2022-11-17T06:00:27.445Z,4.60
2022-11-17T06:03:07.416Z,5.72
2022-11-17T06:05:51.858Z,4.82
2022-11-17T06:08:38.609Z,4.03
2022-11-17T06:14:37.430Z,5.35
2022-11-17T06:17:57.505Z,5.40
2022-11-17T06:21:08.856Z,3.92
2022-11-17T06:23:37.583Z,5.22
2022-11-17T06:26:09.048Z,5.57
2022-11-17T06:28:38.846Z,4.53
2022-11-17T06:31:06.195Z,4.20
2022-11-17T06:33:35.325Z,4.25
2022-11-17T06:36:04.112Z,5.63
2022-11-17T06:38:33.445Z,4.40
2022-11-17T06:41:00.374Z,6.07
2022-11-17T06:43:27.257Z,4.00
2022-11-17T06:45:54.177Z,4.40
2022-11-17T06:48:26.884Z,6.05
2022-11-17T06:50:54.852Z,4.35
2022-11-17T06:53:23.294Z,4.28
2022-11-17T06:55:59.119Z,5.85
2022-11-17T06:58:26.516Z,4.65
2022-11-17T07:00:53.680Z,5.65
2022-11-17T07:03:21.050Z,5.97
